Time;durP1;ratioP1;P1;durP2;ratioP2;P2;SDS_P1;SDS_P2;PMS_P1;PMS_P2;Temp;Humidity;BMP_temperature;BMP_pressure;BME280_temperature;BME280_humidity;BME280_pressure;Samples;Min_cycle;Max_cycle;Signal;HPM_P1;HPM_P2
2023/09/18 00:02:14;;;;;;;10.95;10.00;;;20.60;99.90;;;;;;5021620;28;20166;-86
2023/09/18 00:04:40;;;;;;;12.45;10.95;;;20.60;99.90;;;;;;5005019;28;20116;-86
2023/09/18 00:07:05;;;;;;;11.90;10.70;;;20.60;99.90;;;;;;5021438;28;20028;-86
2023/09/18 00:09:31;;;;;;;11.77;10.48;;;20.60;99.90;;;;;;5055213;28;20045;-86
2023/09/18 00:11:56;;;;;;;11.82;10.73;;;20.60;99.90;;;;;;5055460;28;20035;-86
2023/09/18 00:14:23;;;;;;;11.35;10.07;;;20.60;99.90;;;;;;5021305;28;20021;-86
2023/09/18 00:16:48;;;;;;;11.65;10.45;;;20.60;99.90;;;;;;5021033;28;20487;-86
2023/09/18 00:19:14;;;;;;;11.45;10.35;;;20.60;99.90;;;;;;5037130;28;20116;-86
2023/09/18 00:21:40;;;;;;;11.75;10.55;;;20.60;99.90;;;;;;5037414;28;20027;-86
2023/09/18 00:24:08;;;;;;;12.23;11.02;;;20.60;99.90;;;;;;5055574;28;20032;-86
2023/09/18 00:26:36;;;;;;;12.02;10.88;;;20.60;99.90;;;;;;5005087;28;20085;-85
2023/09/18 00:29:04;;;;;;;13.43;10.80;;;20.60;99.90;;;;;;5005047;28;20029;-86
2023/09/18 00:31:30;;;;;;;11.75;10.10;;;20.50;99.90;;;;;;5020576;28;20453;-86
2023/09/18 00:33:56;;;;;;;11.98;10.77;;;20.60;99.90;;;;;;5037096;28;20079;-86
2023/09/18 00:36:21;;;;;;;11.60;10.52;;;20.50;99.90;;;;;;5037224;28;20074;-86
2023/09/18 00:38:47;;;;;;;11.15;10.02;;;20.50;99.90;;;;;;5036930;28;20400;-86
2023/09/18 00:41:13;;;;;;;11.20;10.10;;;20.50;99.90;;;;;;5055134;28;20021;-86
2023/09/18 00:43:38;;;;;;;11.15;9.95;;;20.50;99.90;;;;;;5037166;28;20029;-86
2023/09/18 00:46:05;;;;;;;11.70;9.70;;;20.50;99.90;;;;;;5004433;28;20431;-86
2023/09/18 00:48:31;;;;;;;10.75;9.75;;;20.50;99.90;;;;;;5020338;28;20385;-86
2023/09/18 00:50:56;;;;;;;11.63;10.48;;;20.60;99.90;;;;;;5019850;28;20037;-86
2023/09/18 00:53:24;;;;;;;10.68;9.63;;;20.50;99.90;;;;;;5020084;28;20029;-86
2023/09/18 00:55:54;;;;;;;12.45;11.25;;;20.50;99.90;;;;;;5036907;28;20107;-86
2023/09/18 00:58:20;;;;;;;10.60;9.60;;;20.60;99.90;;;;;;5020419;28;20044;-86
2023/09/18 01:00:46;;;;;;;11.70;10.60;;;20.50;99.90;;;;;;5036646;28;20017;-86
2023/09/18 01:03:12;;;;;;;10.45;9.45;;;20.50;99.90;;;;;;5020116;28;20021;-86
2023/09/18 01:05:37;;;;;;;12.15;10.90;;;20.50;99.90;;;;;;5019986;28;20052;-86
2023/09/18 01:08:04;;;;;;;11.75;10.55;;;20.50;99.90;;;;;;5036336;28;20044;-86
2023/09/18 01:10:39;;;;;;;12.07;10.07;;;20.50;99.90;;;;;;5036395;28;20056;-85
2023/09/18 01:13:13;;;;;;;12.27;10.85;;;20.40;99.90;;;;;;5036647;28;20075;-86
2023/09/18 01:16:02;;;;;;;12.77;11.48;;;20.50;99.90;;;;;;5036639;28;20023;-85
2023/09/18 01:18:28;;;;;;;12.18;10.98;;;20.50;99.90;;;;;;5036604;28;20483;-86
2023/09/18 01:20:53;;;;;;;13.13;11.70;;;20.50;99.90;;;;;;5003524;28;20017;-86
2023/09/18 01:23:19;;;;;;;12.10;10.80;;;20.40;99.90;;;;;;5036277;28;20028;-86
2023/09/18 01:25:45;;;;;;;12.48;11.27;;;20.40;99.90;;;;;;5036420;28;20025;-86
2023/09/18 01:28:11;;;;;;;13.48;10.45;;;20.40;99.90;;;;;;5036274;28;20021;-86
2023/09/18 01:30:38;;;;;;;11.75;10.60;;;20.40;99.90;;;;;;5020129;28;20025;-86
2023/09/18 01:33:04;;;;;;;10.80;9.70;;;20.50;99.90;;;;;;5036992;28;20202;-86
2023/09/18 01:35:31;;;;;;;11.50;10.40;;;20.40;99.90;;;;;;5037172;28;20028;-86
2023/09/18 01:38:00;;;;;;;13.02;10.88;;;20.50;99.90;;;;;;5021557;28;20032;-86
2023/09/18 01:40:26;;;;;;;12.60;11.07;;;20.40;99.90;;;;;;5021864;28;20033;-86
2023/09/18 01:42:53;;;;;;;12.30;11.00;;;20.40;99.90;;;;;;5038898;28;20079;-86
2023/09/18 01:45:18;;;;;;;11.05;10.10;;;20.40;99.90;;;;;;5045468;28;20080;-86
2023/09/18 01:47:46;;;;;;;12.02;10.82;;;20.50;99.90;;;;;;5044508;28;20009;-86
2023/09/18 01:50:12;;;;;;;11.68;10.43;;;20.40;99.90;;;;;;5059979;28;20040;-86
2023/09/18 01:52:40;;;;;;;11.55;10.43;;;20.40;99.90;;;;;;5039138;28;20103;-86
2023/09/18 01:55:07;;;;;;;12.93;10.52;;;20.50;99.90;;;;;;5020184;28;20025;-85
2023/09/18 01:57:33;;;;;;;12.02;10.88;;;20.40;99.90;;;;;;5003913;28;20021;-86
2023/09/18 01:59:59;;;;;;;11.90;10.70;;;20.40;99.90;;;;;;5036006;28;20025;-85
2023/09/18 02:02:24;;;;;;;12.00;10.85;;;20.40;99.90;;;;;;5019348;28;20532;-85
2023/09/18 02:04:50;;;;;;;13.32;10.48;;;20.50;99.90;;;;;;5035520;28;20464;-86
2023/09/18 02:07:16;;;;;;;12.60;10.55;;;20.50;99.90;;;;;;5019042;28;20021;-86
2023/09/18 02:09:41;;;;;;;10.70;9.60;;;20.50;99.90;;;;;;5012656;28;20433;-85
2023/09/18 02:12:07;;;;;;;11.70;9.90;;;20.50;99.90;;;;;;4996273;28;20233;-85
2023/09/18 02:14:33;;;;;;;10.55;9.27;;;20.50;99.90;;;;;;4996439;28;20481;-86
2023/09/18 02:16:59;;;;;;;11.35;10.23;;;20.50;99.90;;;;;;5013767;28;20018;-86
2023/09/18 02:19:26;;;;;;;11.23;10.13;;;20.50;99.90;;;;;;5012611;28;20045;-86
2023/09/18 02:21:52;;;;;;;12.18;10.88;;;20.50;99.90;;;;;;4996321;28;20025;-85
2023/09/18 02:24:17;;;;;;;11.10;10.00;;;20.50;99.90;;;;;;4996623;28;20474;-86
2023/09/18 02:26:45;;;;;;;11.43;10.27;;;20.50;99.90;;;;;;4995885;28;20034;-86
2023/09/18 02:29:11;;;;;;;11.00;9.73;;;20.50;99.90;;;;;;4996280;28;20036;-86
2023/09/18 02:31:37;;;;;;;12.10;10.02;;;20.50;99.90;;;;;;4996268;28;20121;-86
2023/09/18 02:34:03;;;;;;;11.60;10.40;;;20.50;99.90;;;;;;5012340;28;20026;-85
2023/09/18 02:36:29;;;;;;;11.45;9.95;;;20.50;99.90;;;;;;5012107;28;20018;-86
2023/09/18 02:38:55;;;;;;;11.27;10.05;;;20.50;99.90;;;;;;4995934;28;20121;-86
2023/09/18 02:41:21;;;;;;;10.27;9.27;;;20.50;99.90;;;;;;4996467;28;20030;-86
2023/09/18 02:43:46;;;;;;;11.65;10.45;;;20.50;99.90;;;;;;4996160;28;20473;-86
2023/09/18 02:46:12;;;;;;;12.10;9.73;;;20.50;99.90;;;;;;4995668;28;20033;-86
2023/09/18 02:48:38;;;;;;;11.00;9.90;;;20.50;99.90;;;;;;4995872;28;20033;-86
2023/09/18 02:51:03;;;;;;;13.60;10.98;;;20.50;99.90;;;;;;4995807;28;20028;-86
2023/09/18 02:53:29;;;;;;;11.43;10.23;;;20.50;99.90;;;;;;4995975;28;20022;-85
2023/09/18 02:55:56;;;;;;;14.25;10.02;;;20.50;99.90;;;;;;5013389;28;20022;-86
2023/09/18 02:58:25;;;;;;;11.50;10.30;;;20.50;99.90;;;;;;5012317;28;20033;-86
2023/09/18 03:00:52;;;;;;;10.10;9.07;;;20.50;99.90;;;;;;5012132;28;20037;-85
2023/09/18 03:03:18;;;;;;;11.82;8.85;;;20.50;99.90;;;;;;5011977;28;20134;-85
2023/09/18 03:05:44;;;;;;;10.05;9.05;;;20.50;99.90;;;;;;5012297;28;20527;-86
2023/09/18 03:08:14;;;;;;;9.68;8.73;;;20.50;99.90;;;;;;5011486;28;20113;-86
2023/09/18 03:10:43;;;;;;;10.90;9.85;;;20.60;99.90;;;;;;5024540;28;20042;-86
2023/09/18 03:13:14;;;;;;;10.45;9.43;;;20.60;99.90;;;;;;5017016;28;20049;-85
2023/09/18 03:15:40;;;;;;;12.63;9.93;;;20.50;99.90;;;;;;5035795;28;20537;-85
2023/09/18 03:18:07;;;;;;;12.90;10.13;;;20.50;99.90;;;;;;5002665;28;20112;-86
2023/09/18 03:20:33;;;;;;;11.30;9.52;;;20.50;99.90;;;;;;5035305;28;20389;-86
2023/09/18 03:23:01;;;;;;;11.57;9.35;;;20.50;99.90;;;;;;5034851;28;20501;-85
2023/09/18 03:25:27;;;;;;;9.93;8.93;;;20.50;99.90;;;;;;5019180;28;20121;-86
2023/09/18 03:27:54;;;;;;;10.25;8.82;;;20.50;99.90;;;;;;5019088;28;20444;-86
2023/09/18 03:30:21;;;;;;;10.55;8.55;;;20.50;99.90;;;;;;5018917;28;20052;-86
2023/09/18 03:32:48;;;;;;;13.60;8.27;;;20.50;99.90;;;;;;5037169;28;20104;-86
2023/09/18 03:35:20;;;;;;;10.70;8.73;;;20.50;99.90;;;;;;5041490;28;20021;-85
2023/09/18 03:37:47;;;;;;;9.63;8.63;;;20.50;99.90;;;;;;5060573;28;20045;-85
2023/09/18 03:40:13;;;;;;;9.52;8.52;;;20.50;99.90;;;;;;5059894;28;20025;-86
2023/09/18 03:42:39;;;;;;;10.27;8.77;;;20.50;99.90;;;;;;5058453;28;20006;-86
2023/09/18 03:45:09;;;;;;;9.52;8.48;;;20.50;99.90;;;;;;5040439;28;20010;-86
2023/09/18 03:47:35;;;;;;;11.98;8.70;;;20.50;99.90;;;;;;5028011;28;20017;-86
2023/09/18 03:50:02;;;;;;;9.05;8.15;;;20.50;99.90;;;;;;5035054;28;20029;-86
2023/09/18 03:52:28;;;;;;;9.38;7.93;;;20.50;99.90;;;;;;5036129;28;20025;-85
2023/09/18 03:54:54;;;;;;;9.65;8.65;;;20.50;99.90;;;;;;5035018;28;20124;-85
2023/09/18 03:57:19;;;;;;;11.27;8.63;;;20.50;99.90;;;;;;5018226;28;20028;-85
2023/09/18 03:59:46;;;;;;;9.25;8.35;;;20.50;99.90;;;;;;5018078;28;20038;-86
2023/09/18 04:02:12;;;;;;;10.13;9.13;;;20.50;99.90;;;;;;5017903;28;20033;-85
2023/09/18 04:04:38;;;;;;;10.93;9.10;;;20.50;99.90;;;;;;5034740;28;20061;-86
2023/09/18 04:07:07;;;;;;;9.82;8.75;;;20.60;99.90;;;;;;5018127;28;20059;-85
2023/09/18 04:09:34;;;;;;;11.95;9.13;;;20.50;99.90;;;;;;5039184;28;20049;-86
2023/09/18 04:12:01;;;;;;;10.52;8.70;;;20.50;99.90;;;;;;5021395;28;20464;-86
2023/09/18 04:14:26;;;;;;;11.00;8.55;;;20.60;99.90;;;;;;5037122;28;20021;-85
2023/09/18 04:16:52;;;;;;;9.75;8.85;;;20.50;99.90;;;;;;5021060;28;20035;-86
2023/09/18 04:19:18;;;;;;;8.30;7.50;;;20.60;99.90;;;;;;5020939;28;20465;-86
2023/09/18 04:21:43;;;;;;;8.98;7.97;;;20.60;99.90;;;;;;5004661;28;20425;-86
2023/09/18 04:24:11;;;;;;;9.75;8.13;;;20.60;99.90;;;;;;5036236;28;20112;-86
2023/09/18 04:26:37;;;;;;;9.05;7.70;;;20.60;99.90;;;;;;5037379;28;20140;-86
2023/09/18 04:29:03;;;;;;;8.48;7.30;;;20.60;99.90;;;;;;5037340;28;20477;-86
2023/09/18 04:31:29;;;;;;;7.78;6.97;;;20.60;99.90;;;;;;5020679;28;20059;-86
2023/09/18 04:33:55;;;;;;;8.27;7.10;;;20.60;99.90;;;;;;5054823;28;20028;-86
2023/09/18 04:36:21;;;;;;;7.63;6.72;;;20.60;99.90;;;;;;5020586;28;20029;-86
2023/09/18 04:38:49;;;;;;;8.20;6.03;;;20.60;99.90;;;;;;5037119;28;20368;-86
2023/09/18 04:41:18;;;;;;;7.88;6.40;;;20.60;99.90;;;;;;5020782;28;20025;-85
2023/09/18 04:43:44;;;;;;;8.55;6.25;;;20.60;99.90;;;;;;5020508;28;20025;-86
2023/09/18 04:46:09;;;;;;;9.82;5.90;;;20.60;99.90;;;;;;5036508;28;20604;-86
2023/09/18 04:48:35;;;;;;;9.07;6.05;;;20.70;99.90;;;;;;5054350;28;20029;-85
2023/09/18 04:51:03;;;;;;;7.82;5.60;;;20.60;99.90;;;;;;5037088;28;20027;-85
2023/09/18 04:53:30;;;;;;;10.70;6.10;;;20.70;99.90;;;;;;5036402;28;20024;-85
2023/09/18 04:55:56;;;;;;;6.70;4.93;;;20.70;99.90;;;;;;5036575;28;20025;-84
2023/09/18 04:58:22;;;;;;;7.55;5.35;;;20.70;99.90;;;;;;5036567;28;20078;-85
2023/09/18 05:00:59;;;;;;;9.25;5.45;;;20.70;99.90;;;;;;5036584;28;20415;-84
2023/09/18 05:03:26;;;;;;;9.65;5.80;;;20.70;99.90;;;;;;5054270;28;20024;-85
2023/09/18 05:05:52;;;;;;;7.47;5.30;;;20.80;99.90;;;;;;5054356;28;20013;-85
2023/09/18 05:08:19;;;;;;;8.38;5.80;;;20.80;99.90;;;;;;5036508;28;20429;-85
2023/09/18 05:10:45;;;;;;;9.48;5.45;;;20.80;99.90;;;;;;5016591;28;20053;-85
2023/09/18 05:13:11;;;;;;;6.78;5.13;;;20.80;99.90;;;;;;5034581;28;20028;-84
2023/09/18 05:15:38;;;;;;;7.25;5.20;;;20.80;99.90;;;;;;5033519;28;20064;-85
2023/09/18 05:18:04;;;;;;;9.77;5.43;;;20.80;99.90;;;;;;5035888;28;20021;-85
2023/09/18 05:20:30;;;;;;;9.23;5.85;;;20.80;99.90;;;;;;5021581;28;20113;-85
2023/09/18 05:22:57;;;;;;;5.90;4.82;;;20.90;99.90;;;;;;5044072;28;20047;-85
2023/09/18 05:25:29;;;;;;;7.38;5.00;;;20.90;99.90;;;;;;5039614;28;20029;-85
2023/09/18 05:27:57;;;;;;;6.45;5.60;;;20.90;99.90;;;;;;5041768;28;20025;-85
2023/09/18 05:30:28;;;;;;;8.85;5.07;;;20.90;99.90;;;;;;5022298;28;20056;-86
2023/09/18 05:32:54;;;;;;;9.40;5.40;;;20.90;99.90;;;;;;5040730;28;20010;-86
2023/09/18 05:35:21;;;;;;;7.85;5.50;;;21.00;99.90;;;;;;5056870;28;20026;-86
2023/09/18 05:37:46;;;;;;;8.13;5.80;;;20.90;99.90;;;;;;5041142;28;20018;-86
2023/09/18 05:40:13;;;;;;;6.07;5.00;;;20.90;99.90;;;;;;5041150;28;20030;-86
2023/09/18 05:42:42;;;;;;;10.00;5.60;;;21.00;99.90;;;;;;5039268;28;20043;-86
2023/09/18 05:45:09;;;;;;;7.22;5.75;;;21.00;99.90;;;;;;5041955;28;20076;-86
2023/09/18 05:47:35;;;;;;;7.60;5.47;;;21.00;99.90;;;;;;5033158;28;20020;-86
2023/09/18 05:50:04;;;;;;;9.20;5.10;;;21.00;99.90;;;;;;5016171;28;20462;-86
2023/09/18 05:52:30;;;;;;;7.88;5.32;;;21.00;99.90;;;;;;5032594;28;20052;-86
2023/09/18 05:54:56;;;;;;;5.65;5.03;;;21.00;99.90;;;;;;5033636;28;20068;-86
2023/09/18 05:57:21;;;;;;;8.32;5.35;;;21.00;99.90;;;;;;5032353;28;20049;-86
2023/09/18 05:59:47;;;;;;;8.65;5.88;;;21.00;99.90;;;;;;5032128;28;20480;-86
2023/09/18 06:02:16;;;;;;;6.13;5.40;;;21.00;99.90;;;;;;5016060;28;20026;-86
2023/09/18 06:04:43;;;;;;;6.35;5.75;;;21.00;99.90;;;;;;5032514;28;20026;-85
2023/09/18 06:07:08;;;;;;;8.55;5.47;;;21.00;99.90;;;;;;4999914;28;20029;-86
2023/09/18 06:09:34;;;;;;;7.32;5.75;;;21.00;99.90;;;;;;5032126;28;20424;-86
2023/09/18 06:12:00;;;;;;;6.55;5.45;;;21.00;99.90;;;;;;5052724;28;20041;-86
2023/09/18 06:14:26;;;;;;;9.13;6.10;;;21.00;99.90;;;;;;5035650;28;20048;-86
2023/09/18 06:16:51;;;;;;;7.97;5.72;;;21.00;99.90;;;;;;5053209;28;20039;-86
2023/09/18 06:19:17;;;;;;;9.68;6.03;;;21.00;99.90;;;;;;5019005;28;20039;-86
2023/09/18 06:21:44;;;;;;;7.25;5.32;;;21.00;99.90;;;;;;5053195;28;20028;-86
2023/09/18 06:24:10;;;;;;;7.72;5.97;;;21.00;99.90;;;;;;5019243;28;20064;-86
2023/09/18 06:26:36;;;;;;;6.57;5.32;;;21.10;99.90;;;;;;5035361;28;20400;-85
2023/09/18 06:29:02;;;;;;;7.45;5.47;;;21.10;99.90;;;;;;5035283;28;20032;-85
2023/09/18 06:31:28;;;;;;;5.72;5.10;;;21.00;99.90;;;;;;5018917;28;20025;-86
2023/09/18 06:33:54;;;;;;;7.47;5.20;;;21.10;99.90;;;;;;5035068;28;20017;-87
2023/09/18 06:36:22;;;;;;;7.40;5.45;;;21.10;99.90;;;;;;5035406;28;20021;-87
2023/09/18 06:38:48;;;;;;;8.98;5.75;;;21.10;99.90;;;;;;5035530;28;20028;-85
2023/09/18 06:41:14;;;;;;;7.13;5.95;;;21.10;99.90;;;;;;5018763;28;20113;-85
2023/09/18 06:43:39;;;;;;;8.23;5.07;;;21.20;99.90;;;;;;5053116;28;20029;-86
2023/09/18 06:46:07;;;;;;;8.82;5.00;;;21.20;99.90;;;;;;5052985;28;20021;-86
2023/09/18 06:48:33;;;;;;;5.97;5.00;;;21.20;99.90;;;;;;5037372;28;20079;-86
2023/09/18 06:51:02;;;;;;;6.70;5.03;;;21.20;99.90;;;;;;5039469;28;20029;-86
2023/09/18 06:53:28;;;;;;;6.88;4.20;;;21.20;99.90;;;;;;5039844;28;20025;-86
2023/09/18 06:55:54;;;;;;;5.78;4.10;;;21.30;99.90;;;;;;5039165;28;20017;-86
2023/09/18 06:58:21;;;;;;;5.68;4.10;;;21.20;99.90;;;;;;5039108;28;20047;-86
2023/09/18 07:00:47;;;;;;;7.25;4.05;;;21.20;99.90;;;;;;5056448;28;20021;-86
2023/09/18 07:03:13;;;;;;;5.07;3.63;;;21.30;99.90;;;;;;5038672;28;20119;-86
2023/09/18 07:05:40;;;;;;;3.80;3.28;;;21.20;99.90;;;;;;5038692;28;20107;-86
2023/09/18 07:08:09;;;;;;;4.25;3.17;;;21.30;99.90;;;;;;5038976;28;20037;-86
2023/09/18 07:10:35;;;;;;;4.72;3.10;;;21.30;99.90;;;;;;5056688;28;20032;-85
2023/09/18 07:13:03;;;;;;;4.10;2.63;;;21.30;99.90;;;;;;5022198;28;20047;-87
2023/09/18 07:15:29;;;;;;;4.95;2.92;;;21.30;99.90;;;;;;5023175;28;20032;-86
2023/09/18 07:17:55;;;;;;;2.63;2.25;;;21.30;99.90;;;;;;5038777;28;20337;-86
2023/09/18 07:20:22;;;;;;;3.42;2.20;;;21.30;99.90;;;;;;5038949;28;20033;-86
2023/09/18 07:22:48;;;;;;;3.35;2.45;;;21.30;99.90;;;;;;5039002;28;20024;-85
2023/09/18 07:25:15;;;;;;;3.25;2.25;;;21.30;99.90;;;;;;5022563;28;20051;-86
2023/09/18 07:27:44;;;;;;;2.22;2.00;;;21.30;99.90;;;;;;5022888;28;20372;-86
2023/09/18 07:30:11;;;;;;;2.90;2.10;;;21.30;99.90;;;;;;5024589;28;20024;-86
2023/09/18 07:32:37;;;;;;;2.42;2.13;;;21.30;99.90;;;;;;5062803;28;20005;-87
2023/09/18 07:35:04;;;;;;;2.67;1.98;;;21.30;99.90;;;;;;5046571;28;20029;-86
2023/09/18 07:37:30;;;;;;;3.03;1.73;;;21.30;99.90;;;;;;5063093;28;20043;-86
2023/09/18 07:39:56;;;;;;;2.72;1.70;;;21.30;99.90;;;;;;5047022;28;20022;-86
2023/09/18 07:42:40;;;;;;;3.30;1.90;;;21.40;99.90;;;;;;5028978;28;20021;-86
2023/09/18 07:45:06;;;;;;;2.22;1.98;;;21.40;99.90;;;;;;5039912;28;20372;-85
2023/09/18 07:47:32;;;;;;;2.65;1.67;;;21.40;99.90;;;;;;5038831;28;20021;-86
2023/09/18 07:49:59;;;;;;;2.08;1.67;;;21.40;99.90;;;;;;5038430;28;20346;-86
2023/09/18 07:52:25;;;;;;;3.53;2.00;;;21.40;99.90;;;;;;5038532;28;20048;-85
2023/09/18 07:54:51;;;;;;;4.70;2.15;;;21.40;99.90;;;;;;5037831;28;20059;-86
2023/09/18 07:57:17;;;;;;;2.40;1.80;;;21.40;99.90;;;;;;5037905;28;20024;-86
2023/09/18 07:59:44;;;;;;;3.92;2.00;;;21.40;99.90;;;;;;5021188;28;20025;-86
2023/09/18 08:02:09;;;;;;;4.32;2.08;;;21.40;99.90;;;;;;5037663;28;20055;-86
2023/09/18 08:04:35;;;;;;;3.38;1.80;;;21.40;99.90;;;;;;5005036;28;20021;-85
2023/09/18 08:07:01;;;;;;;2.70;1.65;;;21.40;99.90;;;;;;5055842;28;20017;-86
2023/09/18 08:09:29;;;;;;;3.40;1.77;;;21.40;99.90;;;;;;5037617;28;20032;-85
2023/09/18 08:11:55;;;;;;;2.75;1.60;;;21.40;99.90;;;;;;5037495;28;20102;-86
2023/09/18 08:14:22;;;;;;;2.80;1.70;;;21.40;99.90;;;;;;5037887;28;20041;-86
2023/09/18 08:16:48;;;;;;;3.47;1.50;;;21.50;99.90;;;;;;5037136;28;20111;-85
2023/09/18 08:19:16;;;;;;;1.90;1.40;;;21.50;99.90;;;;;;5021366;28;20029;-86
2023/09/18 08:21:42;;;;;;;4.90;1.92;;;21.50;99.90;;;;;;5037510;28;20376;-87
2023/09/18 08:24:08;;;;;;;2.58;1.45;;;21.50;99.90;;;;;;5037777;28;20036;-85
2023/09/18 08:26:34;;;;;;;2.72;1.75;;;21.50;99.90;;;;;;5055066;28;20032;-86
2023/09/18 08:28:59;;;;;;;2.15;1.60;;;21.60;99.90;;;;;;5021268;28;20112;-86
2023/09/18 08:31:27;;;;;;;2.63;1.60;;;21.50;99.90;;;;;;5004493;28;20362;-87
2023/09/18 08:33:55;;;;;;;2.58;1.67;;;21.50;99.90;;;;;;5037032;28;20469;-86
2023/09/18 08:36:21;;;;;;;1.50;1.40;;;21.60;99.90;;;;;;5020387;28;20032;-85
2023/09/18 08:38:47;;;;;;;2.55;1.50;;;21.60;99.90;;;;;;5021061;28;20455;-86
2023/09/18 08:41:14;;;;;;;2.15;1.30;;;21.60;99.90;;;;;;5020701;28;20048;-85
2023/09/18 08:43:42;;;;;;;2.08;1.27;;;21.60;99.90;;;;;;5020217;28;20021;-86
2023/09/18 08:46:09;;;;;;;3.08;1.83;;;21.60;99.90;;;;;;5036995;28;20103;-86
2023/09/18 08:48:38;;;;;;;2.75;1.70;;;21.70;99.90;;;;;;5036996;28;20072;-86
2023/09/18 08:51:05;;;;;;;3.13;1.45;;;21.70;99.90;;;;;;5036847;28;20044;-86
2023/09/18 08:53:32;;;;;;;1.98;1.35;;;21.70;99.90;;;;;;5054835;28;20052;-86
2023/09/18 08:56:02;;;;;;;3.70;1.48;;;21.80;99.90;;;;;;5020295;28;20036;-86
2023/09/18 08:58:39;;;;;;;2.95;1.48;;;21.80;99.90;;;;;;5037087;28;20032;-85
2023/09/18 09:01:09;;;;;;;1.65;1.30;;;21.80;99.90;;;;;;5036947;28;20060;-86
2023/09/18 09:03:38;;;;;;;2.40;1.60;;;21.80;99.90;;;;;;5036748;28;20013;-86
2023/09/18 09:06:08;;;;;;;2.47;1.45;;;21.80;99.90;;;;;;5036838;28;20500;-85
2023/09/18 09:08:34;;;;;;;2.55;1.55;;;21.80;99.90;;;;;;5036518;28;20505;-86
2023/09/18 09:11:00;;;;;;;1.70;1.35;;;21.80;99.90;;;;;;5035916;28;20013;-86
2023/09/18 09:13:26;;;;;;;1.95;1.40;;;21.80;99.90;;;;;;5003570;28;20392;-86
2023/09/18 09:15:55;;;;;;;2.85;1.60;;;21.80;99.90;;;;;;5036297;28;20029;-85
2023/09/18 09:18:22;;;;;;;2.50;1.45;;;21.80;99.90;;;;;;5020150;28;20024;-86
2023/09/18 09:21:03;;;;;;;2.08;1.23;;;21.90;99.90;;;;;;5036197;28;20044;-85
2023/09/18 09:23:30;;;;;;;1.85;1.50;;;21.90;99.90;;;;;;5036492;28;20510;-85
2023/09/18 09:26:22;;;;;;;1.90;1.52;;;21.90;99.90;;;;;;5036291;28;20020;-86
2023/09/18 09:28:49;;;;;;;1.52;1.30;;;21.90;99.90;;;;;;5035360;28;20139;-85
2023/09/18 09:31:30;;;;;;;2.67;1.50;;;22.00;99.90;;;;;;5071486;28;20024;-86
2023/09/18 09:33:57;;;;;;;1.77;1.33;;;22.00;99.90;;;;;;5060795;28;20016;-85
2023/09/18 09:36:24;;;;;;;3.00;1.58;;;22.00;99.90;;;;;;5077547;28;20028;-86
2023/09/18 09:38:57;;;;;;;3.55;1.55;;;22.10;99.90;;;;;;5039464;28;20349;-86
2023/09/18 09:41:22;;;;;;;2.72;1.45;;;22.10;99.90;;;;;;5051615;28;20033;-85
2023/09/18 09:43:48;;;;;;;1.77;1.42;;;22.20;99.90;;;;;;5036176;28;20017;-86
2023/09/18 09:46:18;;;;;;;3.58;1.88;;;22.20;99.90;;;;;;5003880;28;20059;-85
2023/09/18 09:49:05;;;;;;;1.35;1.23;;;22.20;99.90;;;;;;5035737;28;20025;-85
2023/09/18 09:51:32;;;;;;;1.95;1.38;;;22.30;99.90;;;;;;5035713;28;20029;-86
2023/09/18 09:54:00;;;;;;;2.00;1.48;;;22.30;99.90;;;;;;5035488;28;20028;-86
2023/09/18 09:56:46;;;;;;;2.47;1.42;;;22.30;99.90;;;;;;5036142;28;20095;-86
2023/09/18 09:59:14;;;;;;;3.33;1.50;;;22.30;99.90;;;;;;5036114;28;20476;-85
2023/09/18 10:01:44;;;;;;;2.65;1.50;;;22.40;99.90;;;;;;5035697;28;20460;-86
2023/09/18 10:04:17;;;;;;;2.35;1.45;;;22.40;99.90;;;;;;5036172;28;20103;-86
2023/09/18 10:06:46;;;;;;;1.83;0.95;;;22.50;99.90;;;;;;5035518;28;20024;-85
2023/09/18 10:09:15;;;;;;;1.52;1.42;;;22.50;99.90;;;;;;5035672;28;20032;-85
2023/09/18 10:11:52;;;;;;;4.55;1.65;;;22.60;99.90;;;;;;5035624;28;20352;-86
2023/09/18 10:14:29;;;;;;;2.88;1.30;;;22.60;99.90;;;;;;5053741;28;20508;-86
2023/09/18 10:16:56;;;;;;;2.25;1.55;;;22.60;99.90;;;;;;5035441;28;20024;-86
2023/09/18 10:19:33;;;;;;;2.92;1.38;;;22.70;99.90;;;;;;5018435;28;20080;-87
2023/09/18 10:22:20;;;;;;;2.53;1.30;;;22.70;99.90;;;;;;5053204;28;20535;-86
2023/09/18 10:24:54;;;;;;;4.18;1.45;;;22.70;99.90;;;;;;5057217;28;20017;-87
2023/09/18 10:27:22;;;;;;;3.47;1.60;;;22.70;99.90;;;;;;5039734;28;20048;-86
2023/09/18 10:29:51;;;;;;;3.42;2.17;;;22.70;99.90;;;;;;5057378;28;20108;-86
2023/09/18 10:32:21;;;;;;;2.60;1.55;;;22.70;99.90;;;;;;5040373;28;20067;-85
2023/09/18 10:34:48;;;;;;;6.43;1.88;;;22.70;99.90;;;;;;5039845;28;20449;-86
2023/09/18 10:37:15;;;;;;;3.00;1.90;;;22.70;99.90;;;;;;5022924;28;20044;-86
2023/09/18 10:39:43;;;;;;;3.20;1.92;;;22.70;99.90;;;;;;5039506;28;20032;-85
2023/09/18 10:42:10;;;;;;;2.08;1.65;;;22.70;99.90;;;;;;5057199;28;20037;-85
2023/09/18 10:44:39;;;;;;;4.47;1.80;;;22.70;99.90;;;;;;5039278;28;20025;-85
2023/09/18 10:47:08;;;;;;;4.97;2.05;;;22.80;99.90;;;;;;5039245;28;20048;-87
2023/09/18 10:49:37;;;;;;;4.13;1.95;;;22.90;99.90;;;;;;5056666;28;20086;-86
2023/09/18 10:52:03;;;;;;;2.97;1.60;;;22.90;99.90;;;;;;5038912;28;20017;-86
2023/09/18 10:54:30;;;;;;;2.35;1.98;;;22.90;99.90;;;;;;5038954;28;20407;-86
2023/09/18 10:56:57;;;;;;;2.67;1.83;;;23.00;99.90;;;;;;5038805;28;20021;-86
2023/09/18 10:59:23;;;;;;;3.75;2.00;;;23.00;99.90;;;;;;5006591;28;20038;-85
2023/09/18 11:01:50;;;;;;;2.38;1.90;;;23.00;99.90;;;;;;5022480;28;20029;-86
2023/09/18 11:04:19;;;;;;;4.13;1.90;;;23.10;99.90;;;;;;5039107;28;20051;-85
2023/09/18 11:07:05;;;;;;;2.25;1.73;;;23.10;99.90;;;;;;5038436;28;20029;-86
2023/09/18 11:09:44;;;;;;;3.60;1.80;;;23.10;99.90;;;;;;5039165;28;20051;-85
2023/09/18 11:12:11;;;;;;;3.57;1.93;;;23.10;99.90;;;;;;5038748;28;20025;-85
2023/09/18 11:14:46;;;;;;;2.80;2.00;;;23.10;99.90;;;;;;5034694;28;20402;-86
2023/09/18 11:17:30;;;;;;;2.88;2.10;;;23.10;99.90;;;;;;5035464;28;20068;-85
2023/09/18 11:20:11;;;;;;;2.92;1.70;;;23.10;99.90;;;;;;5035382;28;20021;-86
2023/09/18 11:22:39;;;;;;;2.08;1.83;;;23.20;99.90;;;;;;5036483;28;20168;-86
2023/09/18 11:25:31;;;;;;;2.80;1.90;;;23.30;99.90;;;;;;5035461;28;20063;-86
2023/09/18 11:27:57;;;;;;;2.30;1.70;;;23.40;99.90;;;;;;5035787;28;20051;-86
2023/09/18 11:30:23;;;;;;;3.28;1.80;;;23.40;99.90;;;;;;5018073;28;20105;-86
2023/09/18 11:32:49;;;;;;;4.00;2.08;;;23.50;99.90;;;;;;5060538;28;20037;-85
2023/09/18 11:35:18;;;;;;;2.92;1.95;;;23.60;99.90;;;;;;5026836;28;20017;-85
2023/09/18 11:37:45;;;;;;;4.35;2.28;;;23.60;99.90;;;;;;5043881;28;20034;-85
2023/09/18 11:40:33;;;;;;;5.57;1.83;;;23.60;99.90;;;;;;5060080;28;20014;-86
2023/09/18 11:43:25;;;;;;;3.90;2.13;;;23.50;99.90;;;;;;5046533;28;20013;-86
2023/09/18 11:45:55;;;;;;;2.63;1.80;;;23.50;99.90;;;;;;5035694;28;20029;-86
2023/09/18 11:48:27;;;;;;;4.88;2.20;;;23.50;99.90;;;;;;5019156;28;20026;-85
2023/09/18 11:50:54;;;;;;;5.25;2.33;;;23.40;99.90;;;;;;5036313;28;20017;-85
2023/09/18 11:53:23;;;;;;;4.13;2.38;;;23.30;99.90;;;;;;5034740;28;20122;-85
2023/09/18 11:55:49;;;;;;;4.55;2.05;;;23.20;99.90;;;;;;5035966;28;20092;-85
2023/09/18 11:58:15;;;;;;;4.47;2.35;;;23.10;99.90;;;;;;5018226;28;20478;-86
2023/09/18 12:00:46;;;;;;;4.75;2.28;;;23.00;99.90;;;;;;5018148;28;20458;-85
2023/09/18 12:03:17;;;;;;;5.35;2.53;;;23.00;99.90;;;;;;5034974;28;20062;-85
2023/09/18 12:05:44;;;;;;;3.95;2.25;;;22.90;99.90;;;;;;5018442;28;20030;-86
2023/09/18 12:08:14;;;;;;;12.25;2.58;;;22.90;99.90;;;;;;5017833;28;20511;-86
2023/09/18 12:10:40;;;;;;;4.93;2.38;;;22.90;99.90;;;;;;5034606;28;20488;-85
2023/09/18 12:13:11;;;;;;;3.97;2.40;;;22.90;99.90;;;;;;5017767;28;20117;-85
2023/09/18 12:15:39;;;;;;;4.28;2.28;;;23.00;99.90;;;;;;5033974;28;20076;-86
2023/09/18 12:18:07;;;;;;;2.40;2.10;;;23.00;99.90;;;;;;5018054;28;20029;-85
2023/09/18 12:20:37;;;;;;;2.97;2.40;;;23.10;99.90;;;;;;5034226;28;20371;-85
2023/09/18 12:23:02;;;;;;;3.45;2.75;;;23.10;99.90;;;;;;5017776;28;20082;-85
2023/09/18 12:25:28;;;;;;;4.28;2.38;;;23.20;99.90;;;;;;5017354;28;20120;-87
2023/09/18 12:27:55;;;;;;;3.72;2.20;;;23.10;99.90;;;;;;5001569;28;20360;-86
2023/09/18 12:30:22;;;;;;;4.15;2.35;;;23.10;99.90;;;;;;5001225;28;20168;-86
2023/09/18 12:32:49;;;;;;;5.88;2.45;;;23.10;99.90;;;;;;5017609;28;20457;-86
2023/09/18 12:35:15;;;;;;;4.90;2.53;;;23.20;99.90;;;;;;5017367;28;20025;-86
2023/09/18 12:37:41;;;;;;;3.35;2.63;;;23.20;99.90;;;;;;5017501;28;20045;-86
2023/09/18 12:40:27;;;;;;;5.90;2.40;;;23.30;99.90;;;;;;5017292;28;20025;-86
2023/09/18 12:42:56;;;;;;;4.35;2.83;;;23.20;99.90;;;;;;5033778;28;20022;-85
2023/09/18 12:45:23;;;;;;;2.78;2.47;;;23.20;99.90;;;;;;5032396;28;20429;-85